Austin, Nevada
Current Conditions -  °F | °C
As of 3:56 AM on Friday 31 Oct 2014 (Local Time) from KNFL Reporting Station
Clear Clear  
Wind Chill: 46°   Ceiling: Unl
Heat Index: 46°   Visibility: 10mi
Dew Point: 26°   Wind: 3mph
Humidity: 46%   Direction: 310°NW
Pressure: 29.86"   Gusts: NA
Location:  39.49°N, 117.07°W
Report Text: KNFL 311056Z AUTO 31003KT 10SM CLR 08/M03 A2986 RMK AO2 SLP088 T00781033
Loading
Personal Weather Stations






























Interactive Weather Map New forecast layout! Learn more

10-Day Weather Forecast

Advertisements
Track Severe Weather on mobile